Time;durP1;ratioP1;P1;durP2;ratioP2;P2;SDS_P1;SDS_P2;PMS_P1;PMS_P2;Temp;Humidity;BMP_temperature;BMP_pressure;BME280_temperature;BME280_humidity;BME280_pressure;Samples;Min_cycle;Max_cycle;Signal;HPM_P1;HPM_P2
2022/10/08 00:00:57;;;;;;;12.35;3.03;;;13.00;1.00;;;;;;5061396;28;20043;-77
2022/10/08 00:03:25;;;;;;;9.27;2.63;;;13.00;1.00;;;;;;5067999;28;20076;-77
2022/10/08 00:05:57;;;;;;;14.50;3.35;;;12.90;1.00;;;;;;5057900;28;20566;-77
2022/10/08 00:08:24;;;;;;;13.32;2.90;;;12.90;1.00;;;;;;5054371;28;20126;-77
2022/10/08 00:11:02;;;;;;;7.32;2.80;;;12.90;2.80;;;;;;5038045;28;20071;-77
2022/10/08 00:13:39;;;;;;;10.05;2.92;;;12.90;3.00;;;;;;5050269;28;20086;-77
2022/10/08 00:16:07;;;;;;;11.98;3.10;;;12.80;10.20;;;;;;5049954;28;20048;-77
2022/10/08 00:18:32;;;;;;;12.15;2.85;;;12.80;16.30;;;;;;5059442;28;20056;-77
2022/10/08 00:21:15;;;;;;;13.52;2.90;;;12.80;24.90;;;;;;5056977;28;20220;-77
2022/10/08 00:23:41;;;;;;;11.85;3.00;;;12.80;26.80;;;;;;5073433;28;20455;-77
2022/10/08 00:26:07;;;;;;;11.20;2.97;;;12.80;27.10;;;;;;5056059;28;20050;-77
2022/10/08 00:28:37;;;;;;;7.25;2.33;;;12.80;33.40;;;;;;5073853;28;20044;-77
2022/10/08 00:31:13;;;;;;;9.70;2.45;;;12.80;46.20;;;;;;5073152;28;20059;-77
2022/10/08 00:33:39;;;;;;;7.55;2.25;;;12.80;43.30;;;;;;5057036;28;20040;-77
2022/10/08 00:36:08;;;;;;;9.90;2.40;;;12.80;49.50;;;;;;5073077;28;20082;-77
2022/10/08 00:38:35;;;;;;;8.27;2.30;;;12.80;57.70;;;;;;5064919;28;20505;-77
2022/10/08 00:41:01;;;;;;;9.48;2.05;;;12.80;66.10;;;;;;5071834;28;20058;-77
2022/10/08 00:43:53;;;;;;;6.15;2.28;;;12.70;63.90;;;;;;5052400;28;20048;-77
2022/10/08 00:46:24;;;;;;;7.35;2.30;;;12.80;91.80;;;;;;5056056;28;20086;-77
2022/10/08 00:49:11;;;;;;;8.50;2.28;;;12.70;79.40;;;;;;5052964;28;20059;-78
2022/10/08 00:51:51;;;;;;;9.05;2.70;;;12.70;87.00;;;;;;5073338;28;20443;-77
2022/10/08 00:54:18;;;;;;;8.35;1.85;;;12.70;79.60;;;;;;5060297;28;20516;-77
2022/10/08 00:56:50;;;;;;;8.43;1.90;;;12.70;79.70;;;;;;5056471;28;20082;-77
2022/10/08 00:59:16;;;;;;;10.80;2.10;;;12.70;79.30;;;;;;5059114;28;20515;-78
2022/10/08 01:01:42;;;;;;;11.25;2.35;;;12.70;80.20;;;;;;5056820;28;20059;-78
2022/10/08 01:04:10;;;;;;;10.23;2.30;;;12.80;86.60;;;;;;5072528;28;20048;-79
2022/10/08 01:06:38;;;;;;;10.88;2.50;;;12.60;99.70;;;;;;5039848;28;20119;-79
2022/10/08 01:09:12;;;;;;;12.93;2.72;;;12.40;99.90;;;;;;5068042;28;20058;-80
2022/10/08 01:11:55;;;;;;;13.57;3.20;;;12.20;99.90;;;;;;5072095;28;20365;-78
2022/10/08 01:14:43;;;;;;;8.25;2.28;;;12.10;99.90;;;;;;5071931;28;20466;-78
2022/10/08 01:17:30;;;;;;;6.22;2.53;;;11.90;99.90;;;;;;5069452;28;20044;-78
2022/10/08 01:20:09;;;;;;;7.57;2.47;;;11.80;99.90;;;;;;5054312;28;20131;-78
2022/10/08 01:22:38;;;;;;;6.95;2.40;;;11.70;99.90;;;;;;5070465;28;20056;-78
2022/10/08 01:25:31;;;;;;;14.90;3.30;;;11.60;99.90;;;;;;5063334;28;20052;-80
2022/10/08 01:28:12;;;;;;;6.50;2.72;;;11.60;99.90;;;;;;5055744;28;20079;-78
2022/10/08 01:30:44;;;;;;;10.90;2.80;;;11.60;99.90;;;;;;5072721;28;20058;-78
2022/10/08 01:33:24;;;;;;;12.13;2.72;;;11.50;99.90;;;;;;5066227;28;20044;-77
2022/10/08 01:35:56;;;;;;;11.75;3.03;;;11.60;99.90;;;;;;5059998;28;20805;-77
2022/10/08 01:38:24;;;;;;;14.20;3.33;;;11.50;99.90;;;;;;5063989;28;20044;-77
2022/10/08 01:40:53;;;;;;;15.52;3.53;;;11.50;99.90;;;;;;5060457;28;20109;-77
2022/10/08 01:43:22;;;;;;;13.13;3.10;;;11.50;99.90;;;;;;5040852;28;20189;-77
2022/10/08 01:45:58;;;;;;;12.23;3.55;;;11.50;99.90;;;;;;5072502;28;20083;-77
2022/10/08 01:48:32;;;;;;;8.23;3.10;;;11.50;99.90;;;;;;5054875;28;20457;-77
2022/10/08 01:51:12;;;;;;;13.05;3.85;;;11.50;99.90;;;;;;5070711;28;20048;-77
2022/10/08 01:53:41;;;;;;;11.65;3.53;;;11.40;99.90;;;;;;5035605;28;20490;-77
2022/10/08 01:56:10;;;;;;;15.00;3.80;;;11.40;99.90;;;;;;5052383;28;20052;-79
2022/10/08 01:58:39;;;;;;;11.60;4.03;;;11.40;99.90;;;;;;5044143;28;20528;-76
2022/10/08 02:01:12;;;;;;;12.93;4.50;;;11.30;99.90;;;;;;5051942;28;20079;-76
2022/10/08 02:04:31;;;;;;;15.20;4.13;;;11.20;99.90;;;;;;5048664;28;20086;-77
2022/10/08 02:06:24;;;;;;;15.10;4.50;;;11.30;99.90;;;;;;5072709;28;20584;-76
2022/10/08 02:08:50;;;;;;;10.80;4.45;;;11.20;99.90;;;;;;5035520;28;20091;-77
2022/10/08 02:11:16;;;;;;;14.80;4.85;;;11.30;99.90;;;;;;5036075;28;20490;-77
2022/10/08 02:13:42;;;;;;;13.48;5.03;;;11.30;99.90;;;;;;5055549;28;20102;-77
2022/10/08 02:16:13;;;;;;;11.70;5.03;;;11.30;99.90;;;;;;5052491;28;20052;-77
2022/10/08 02:18:46;;;;;;;11.63;4.70;;;11.20;99.90;;;;;;5046620;28;20500;-77
2022/10/08 02:21:25;;;;;;;18.02;4.70;;;11.10;99.90;;;;;;5054073;28;20056;-79
2022/10/08 02:24:23;;;;;;;14.88;5.40;;;11.10;99.90;;;;;;5054664;28;20048;-77
2022/10/08 02:26:54;;;;;;;12.85;5.43;;;11.00;99.90;;;;;;5022680;28;20080;-76
2022/10/08 02:29:26;;;;;;;17.30;6.93;;;10.90;99.90;;;;;;5061523;28;20078;-77
2022/10/08 02:31:56;;;;;;;13.77;6.22;;;10.80;99.90;;;;;;5054089;28;20044;-76
2022/10/08 02:34:36;;;;;;;17.73;6.60;;;10.80;99.90;;;;;;5054254;28;20052;-77
2022/10/08 02:37:22;;;;;;;15.68;6.57;;;10.80;99.90;;;;;;5058727;28;20541;-77
2022/10/08 02:39:58;;;;;;;17.55;7.35;;;10.80;99.90;;;;;;5068000;28;20132;-77
2022/10/08 02:42:27;;;;;;;18.08;7.30;;;10.90;99.90;;;;;;5062035;28;20572;-77
2022/10/08 02:45:22;;;;;;;17.02;7.05;;;10.90;99.90;;;;;;5049001;28;20051;-77
2022/10/08 02:47:50;;;;;;;18.38;6.80;;;10.90;99.90;;;;;;5048881;28;20048;-77
2022/10/08 02:50:21;;;;;;;17.63;7.55;;;10.90;99.90;;;;;;5070492;28;20074;-77
2022/10/08 02:52:49;;;;;;;16.73;7.30;;;10.90;99.90;;;;;;5070681;28;20059;-77
2022/10/08 02:55:43;;;;;;;17.75;7.70;;;10.90;99.90;;;;;;5054160;28;20056;-79
2022/10/08 02:58:11;;;;;;;17.63;7.13;;;10.80;99.90;;;;;;4993257;28;20057;-77
2022/10/08 03:01:01;;;;;;;14.70;6.93;;;10.80;99.90;;;;;;5046690;28;20499;-77
2022/10/08 03:03:36;;;;;;;18.48;7.32;;;10.80;99.90;;;;;;5042168;28;20438;-77
2022/10/08 03:06:07;;;;;;;14.82;7.15;;;10.80;99.90;;;;;;5070812;28;20131;-77
2022/10/08 03:08:37;;;;;;;16.40;7.63;;;10.70;99.90;;;;;;5070666;28;20059;-77
2022/10/08 03:11:04;;;;;;;23.75;7.22;;;10.70;99.90;;;;;;5054322;28;20052;-77
2022/10/08 03:13:35;;;;;;;20.55;7.40;;;10.60;99.90;;;;;;5053695;28;20059;-77
2022/10/08 03:16:05;;;;;;;22.38;7.40;;;10.60;99.90;;;;;;5054168;28;20044;-77
2022/10/08 03:18:31;;;;;;;22.55;8.10;;;10.50;99.90;;;;;;5054228;28;20055;-77
2022/10/08 03:20:57;;;;;;;17.65;7.55;;;10.50;99.90;;;;;;5070936;28;20044;-77
2022/10/08 03:23:23;;;;;;;23.80;7.80;;;10.50;99.90;;;;;;5070248;28;20055;-77
2022/10/08 03:25:49;;;;;;;22.75;8.75;;;10.40;99.90;;;;;;5056676;28;20493;-76
2022/10/08 03:28:14;;;;;;;19.13;7.63;;;10.40;99.90;;;;;;5034570;28;20490;-77
2022/10/08 03:30:40;;;;;;;27.17;7.78;;;10.50;99.90;;;;;;5050721;28;20122;-77
2022/10/08 03:33:06;;;;;;;21.33;7.47;;;10.40;99.90;;;;;;5051065;28;20059;-77
2022/10/08 03:35:31;;;;;;;16.63;7.75;;;10.30;99.90;;;;;;5031432;28;20044;-77
2022/10/08 03:37:57;;;;;;;19.60;7.90;;;10.30;99.90;;;;;;5034128;28;20109;-77
2022/10/08 03:40:23;;;;;;;21.13;7.78;;;10.30;99.90;;;;;;5053404;28;20101;-77
2022/10/08 03:42:50;;;;;;;29.90;8.25;;;10.30;99.90;;;;;;5070954;28;20044;-77
2022/10/08 03:45:15;;;;;;;19.02;8.02;;;10.40;99.90;;;;;;5070402;28;20412;-77
2022/10/08 03:47:41;;;;;;;19.30;7.90;;;10.40;99.90;;;;;;5049894;28;20037;-76
2022/10/08 03:50:07;;;;;;;21.92;8.57;;;10.50;99.90;;;;;;5050608;28;20080;-77
2022/10/08 03:52:33;;;;;;;18.65;8.05;;;10.60;99.90;;;;;;5042279;28;20133;-76
2022/10/08 03:54:59;;;;;;;21.00;8.48;;;10.50;99.90;;;;;;5074019;28;20072;-77
2022/10/08 03:57:24;;;;;;;23.77;7.53;;;10.50;99.90;;;;;;5073698;28;20084;-76
2022/10/08 03:59:50;;;;;;;20.48;8.20;;;10.50;99.90;;;;;;5054099;28;20048;-77
2022/10/08 04:02:15;;;;;;;17.40;7.57;;;10.40;99.90;;;;;;5045661;28;20041;-77
2022/10/08 04:04:41;;;;;;;26.02;8.60;;;10.40;99.90;;;;;;5055737;28;20093;-76
2022/10/08 04:07:07;;;;;;;18.50;7.57;;;10.40;99.90;;;;;;5028720;28;20106;-77
2022/10/08 04:09:33;;;;;;;18.38;7.20;;;10.40;99.90;;;;;;5039170;28;20048;-77
2022/10/08 04:11:58;;;;;;;23.83;7.82;;;10.50;99.90;;;;;;5046988;28;20105;-76
2022/10/08 04:14:24;;;;;;;19.33;7.70;;;10.50;99.90;;;;;;5053135;28;20135;-77
2022/10/08 04:16:50;;;;;;;26.08;8.15;;;10.60;99.90;;;;;;5057603;28;20048;-76
2022/10/08 04:19:16;;;;;;;21.75;7.63;;;10.60;99.90;;;;;;5067282;28;20044;-77
2022/10/08 04:21:42;;;;;;;19.05;7.97;;;10.50;99.90;;;;;;5037161;28;20102;-76
2022/10/08 04:24:08;;;;;;;23.90;8.00;;;10.50;99.90;;;;;;5056981;28;20044;-76
2022/10/08 04:26:34;;;;;;;24.40;8.75;;;10.50;99.90;;;;;;5069653;28;20128;-76
2022/10/08 04:28:59;;;;;;;23.67;8.52;;;10.40;99.90;;;;;;5037721;28;20134;-76
2022/10/08 04:31:25;;;;;;;23.42;8.32;;;10.40;99.90;;;;;;5067343;28;20040;-79
2022/10/08 04:33:51;;;;;;;22.08;8.15;;;10.40;99.90;;;;;;5036013;28;20063;-76
2022/10/08 04:36:20;;;;;;;25.52;8.15;;;10.40;99.90;;;;;;5037044;28;20052;-77
2022/10/08 04:38:46;;;;;;;19.27;7.10;;;10.40;99.90;;;;;;5056518;28;20051;-76
2022/10/08 04:41:13;;;;;;;21.10;8.70;;;10.40;99.90;;;;;;5056739;28;20046;-77
2022/10/08 04:43:40;;;;;;;22.42;8.57;;;10.30;99.90;;;;;;5047608;28;20504;-76
2022/10/08 04:46:13;;;;;;;19.88;7.22;;;10.30;99.90;;;;;;5036693;28;20136;-79
2022/10/08 04:48:39;;;;;;;18.98;8.00;;;10.30;99.90;;;;;;5052260;28;20102;-79
2022/10/08 04:51:06;;;;;;;26.65;7.82;;;10.30;99.90;;;;;;5068208;28;20059;-77
2022/10/08 04:53:34;;;;;;;21.42;7.30;;;10.30;99.90;;;;;;5072891;28;20044;-76
2022/10/08 04:56:15;;;;;;;19.02;6.97;;;10.20;99.90;;;;;;5055020;28;20124;-77
2022/10/08 04:58:41;;;;;;;19.40;6.72;;;10.20;99.90;;;;;;5056272;28;20378;-77
2022/10/08 05:01:09;;;;;;;19.77;7.57;;;10.20;99.90;;;;;;5055187;28;20089;-77
2022/10/08 05:03:37;;;;;;;19.52;7.00;;;10.20;99.90;;;;;;5055126;28;20062;-77
2022/10/08 05:06:03;;;;;;;18.20;7.10;;;10.10;99.90;;;;;;5071832;28;20047;-77
2022/10/08 05:08:29;;;;;;;16.70;6.68;;;10.10;99.90;;;;;;5055858;28;20086;-79
2022/10/08 05:10:55;;;;;;;12.02;6.25;;;10.10;99.90;;;;;;5035479;28;20083;-77
2022/10/08 05:13:20;;;;;;;18.88;6.22;;;10.10;99.90;;;;;;5030125;28;20044;-77
2022/10/08 05:15:47;;;;;;;21.98;6.78;;;10.20;99.90;;;;;;5054858;28;20036;-77
2022/10/08 05:18:13;;;;;;;20.98;5.93;;;10.20;99.90;;;;;;5072331;28;20044;-77
2022/10/08 05:20:39;;;;;;;18.98;5.65;;;10.30;99.90;;;;;;5057940;28;20051;-77
2022/10/08 05:23:04;;;;;;;25.00;6.07;;;10.20;99.90;;;;;;5052898;28;20045;-77
2022/10/08 05:25:32;;;;;;;14.85;5.38;;;10.20;99.90;;;;;;5070631;28;20048;-79
2022/10/08 05:27:58;;;;;;;18.45;5.63;;;10.20;99.90;;;;;;5055134;28;20044;-78
2022/10/08 05:30:24;;;;;;;19.80;5.78;;;10.10;99.90;;;;;;5071981;28;20073;-77
2022/10/08 05:32:49;;;;;;;21.38;6.15;;;10.10;99.90;;;;;;5055505;28;20040;-77
2022/10/08 05:35:15;;;;;;;19.75;5.88;;;10.10;99.90;;;;;;5070428;28;20040;-77
2022/10/08 05:37:41;;;;;;;15.18;5.53;;;10.00;99.90;;;;;;5070748;28;20446;-77
2022/10/08 05:40:07;;;;;;;20.60;5.35;;;10.00;99.90;;;;;;5070337;28;20043;-77
2022/10/08 05:42:33;;;;;;;12.90;5.50;;;10.00;99.90;;;;;;5052004;28;20053;-80
2022/10/08 05:44:58;;;;;;;20.83;5.10;;;10.00;99.90;;;;;;5051998;28;20093;-77
2022/10/08 05:47:24;;;;;;;16.75;5.07;;;9.90;99.90;;;;;;5044532;28;20063;-77
2022/10/08 05:49:50;;;;;;;18.25;5.95;;;10.00;99.90;;;;;;5067681;28;20564;-78
2022/10/08 05:52:15;;;;;;;15.60;4.80;;;10.00;99.90;;;;;;5033781;28;20052;-77
2022/10/08 05:54:41;;;;;;;18.90;4.55;;;9.90;99.90;;;;;;5034311;28;20036;-77
2022/10/08 05:57:07;;;;;;;19.15;5.10;;;10.00;99.90;;;;;;5048429;28;20078;-77
2022/10/08 05:59:32;;;;;;;21.33;4.93;;;9.90;99.90;;;;;;5068945;28;20055;-77
2022/10/08 06:01:58;;;;;;;16.67;5.10;;;9.90;99.90;;;;;;5038071;28;20040;-77
2022/10/08 06:04:24;;;;;;;18.23;4.47;;;9.90;99.90;;;;;;5050812;28;20438;-77
2022/10/08 06:06:49;;;;;;;16.92;5.40;;;9.90;99.90;;;;;;5047995;28;20044;-79
2022/10/08 06:09:17;;;;;;;18.70;7.35;;;10.00;99.90;;;;;;5035007;28;20049;-77
2022/10/08 06:11:44;;;;;;;22.63;6.30;;;9.90;99.90;;;;;;5047811;28;20055;-77
2022/10/08 06:14:11;;;;;;;38.38;9.65;;;9.80;99.90;;;;;;5054374;28;20039;-78
2022/10/08 06:16:38;;;;;;;25.40;7.22;;;9.80;99.90;;;;;;5057521;28;20053;-79
2022/10/08 06:19:04;;;;;;;23.88;6.93;;;9.80;99.90;;;;;;5054268;28;20580;-77
2022/10/08 06:21:31;;;;;;;25.02;12.13;;;9.80;99.90;;;;;;5071701;28;20131;-78
2022/10/08 06:23:58;;;;;;;41.00;19.10;;;9.80;99.90;;;;;;5054253;28;20140;-77
2022/10/08 06:26:27;;;;;;;25.55;10.02;;;9.80;99.90;;;;;;5071285;28;20409;-77
2022/10/08 06:28:53;;;;;;;17.45;5.68;;;9.90;99.90;;;;;;5063728;28;20619;-77
2022/10/08 06:31:18;;;;;;;21.58;6.55;;;10.10;99.90;;;;;;5041779;28;20040;-78
2022/10/08 06:33:45;;;;;;;20.20;6.47;;;10.20;99.90;;;;;;5018745;28;20127;-79
2022/10/08 06:36:19;;;;;;;21.90;4.93;;;10.30;99.90;;;;;;5031338;28;20078;-77
2022/10/08 06:38:52;;;;;;;25.55;4.82;;;10.30;99.90;;;;;;5063691;28;20059;-77
2022/10/08 06:41:19;;;;;;;21.75;6.20;;;10.20;99.90;;;;;;5039567;28;20493;-77
2022/10/08 06:43:45;;;;;;;18.98;6.63;;;10.20;99.90;;;;;;5064610;28;20135;-77
2022/10/08 06:46:11;;;;;;;15.52;4.95;;;10.10;99.90;;;;;;5023027;28;20122;-77
2022/10/08 06:48:37;;;;;;;17.70;5.85;;;10.10;99.90;;;;;;5060920;28;20557;-77
2022/10/08 06:51:06;;;;;;;19.20;5.22;;;10.10;99.90;;;;;;5022162;28;20044;-76
2022/10/08 06:53:32;;;;;;;24.98;5.65;;;10.00;99.90;;;;;;5045075;28;20051;-76
2022/10/08 06:56:00;;;;;;;23.00;7.35;;;10.10;99.90;;;;;;5037835;28;20032;-77
2022/10/08 06:58:26;;;;;;;24.23;7.53;;;10.10;99.90;;;;;;5044799;28;20551;-78
2022/10/08 07:01:15;;;;;;;20.13;5.65;;;10.10;99.90;;;;;;5051871;28;20048;-79
2022/10/08 07:03:41;;;;;;;14.80;5.57;;;10.30;99.90;;;;;;5052215;28;20410;-78
2022/10/08 07:06:11;;;;;;;15.30;5.22;;;10.40;99.90;;;;;;5034711;28;20121;-78
2022/10/08 07:08:37;;;;;;;26.75;7.55;;;10.60;99.90;;;;;;5051656;28;20494;-78
2022/10/08 07:11:14;;;;;;;19.40;4.75;;;10.70;99.90;;;;;;5050962;28;20047;-78
2022/10/08 07:13:41;;;;;;;19.05;4.75;;;10.70;99.90;;;;;;5066990;28;20084;-79
2022/10/08 07:16:17;;;;;;;19.92;4.60;;;10.80;99.90;;;;;;5036682;28;20048;-78
2022/10/08 07:18:44;;;;;;;15.02;4.00;;;10.90;99.90;;;;;;5053793;28;20135;-78
2022/10/08 07:21:13;;;;;;;15.00;4.22;;;11.00;99.90;;;;;;5070364;28;20048;-79
2022/10/08 07:23:38;;;;;;;13.38;3.95;;;10.90;99.90;;;;;;5061105;28;20047;-78
2022/10/08 07:26:16;;;;;;;18.85;6.13;;;11.00;99.90;;;;;;5053502;28;20050;-78
2022/10/08 07:28:47;;;;;;;13.98;4.10;;;10.90;99.90;;;;;;5056836;28;20054;-78
2022/10/08 07:31:19;;;;;;;11.35;3.45;;;10.90;99.90;;;;;;5074348;28;20052;-78
2022/10/08 07:33:45;;;;;;;18.13;5.15;;;10.90;99.90;;;;;;5071161;28;20040;-78
2022/10/08 07:36:14;;;;;;;21.98;4.57;;;10.70;99.90;;;;;;5036756;28;20048;-78
2022/10/08 07:38:40;;;;;;;11.85;4.50;;;10.70;99.90;;;;;;5055791;28;20136;-78
2022/10/08 07:41:08;;;;;;;16.77;3.70;;;10.70;99.90;;;;;;5038518;28;20086;-79
2022/10/08 07:43:35;;;;;;;16.80;3.60;;;10.70;99.90;;;;;;5039136;28;20036;-79
2022/10/08 07:46:01;;;;;;;12.85;2.80;;;10.70;99.90;;;;;;5038829;28;20218;-80
2022/10/08 07:48:28;;;;;;;19.98;3.60;;;10.70;99.90;;;;;;5039094;28;20653;-79
2022/10/08 07:50:54;;;;;;;14.73;3.40;;;10.70;99.90;;;;;;5023530;28;20048;-80
2022/10/08 07:53:19;;;;;;;17.15;4.53;;;10.80;99.90;;;;;;5034010;28;20060;-79
2022/10/08 07:55:45;;;;;;;14.00;2.80;;;10.80;99.90;;;;;;5023912;28;20048;-78
2022/10/08 07:58:12;;;;;;;9.05;2.15;;;10.80;99.90;;;;;;5037029;28;20189;-80
2022/10/08 08:00:41;;;;;;;13.85;2.50;;;10.90;99.90;;;;;;5057030;28;20501;-79
2022/10/08 08:03:12;;;;;;;12.32;2.10;;;10.90;99.90;;;;;;5038673;28;20048;-79
2022/10/08 08:05:37;;;;;;;19.17;2.30;;;11.00;99.90;;;;;;5052245;28;20044;-79
2022/10/08 08:08:03;;;;;;;10.35;2.28;;;11.00;99.90;;;;;;5038369;28;20121;-79
2022/10/08 08:10:29;;;;;;;12.05;2.00;;;11.10;99.90;;;;;;5035713;28;20143;-79
2022/10/08 08:12:54;;;;;;;10.27;2.13;;;11.20;99.90;;;;;;5047296;28;20044;-79
2022/10/08 08:15:20;;;;;;;13.10;2.30;;;11.20;99.90;;;;;;5052075;28;20090;-79
2022/10/08 08:17:46;;;;;;;8.55;1.98;;;11.30;99.90;;;;;;5040740;28;20036;-80
2022/10/08 08:20:11;;;;;;;10.10;2.33;;;11.30;99.90;;;;;;5062674;28;20109;-79
2022/10/08 08:22:37;;;;;;;12.75;2.00;;;11.40;99.90;;;;;;5033907;28;20044;-79
2022/10/08 08:25:03;;;;;;;11.63;2.00;;;11.50;99.90;;;;;;5048499;28;20051;-79
2022/10/08 08:27:29;;;;;;;11.45;1.80;;;11.60;99.90;;;;;;5056873;28;20044;-79
2022/10/08 08:29:55;;;;;;;9.10;2.17;;;11.60;99.90;;;;;;5071535;28;20044;-81
2022/10/08 08:32:20;;;;;;;8.63;1.65;;;11.60;99.90;;;;;;5053852;28;20132;-79
2022/10/08 08:34:46;;;;;;;10.38;2.38;;;11.60;99.90;;;;;;5044558;28;20114;-79
2022/10/08 08:37:12;;;;;;;11.07;1.55;;;11.70;99.90;;;;;;5072586;28;20052;-79
2022/10/08 08:39:37;;;;;;;10.60;2.05;;;11.70;99.90;;;;;;5056187;28;20059;-80
2022/10/08 08:42:27;;;;;;;5.85;1.52;;;11.70;99.90;;;;;;5056082;28;20638;-79
2022/10/08 08:44:59;;;;;;;8.93;1.80;;;11.80;99.90;;;;;;5073097;28;20085;-80
2022/10/08 08:47:34;;;;;;;9.95;1.80;;;11.80;99.90;;;;;;5072716;28;20400;-80
2022/10/08 08:50:07;;;;;;;6.90;1.60;;;11.90;99.90;;;;;;5053965;28;20056;-80
2022/10/08 08:52:39;;;;;;;9.38;1.77;;;12.00;99.90;;;;;;5071427;28;20566;-79
2022/10/08 08:55:17;;;;;;;9.25;1.80;;;12.10;99.90;;;;;;5052862;28;20044;-79
2022/10/08 08:58:12;;;;;;;9.23;1.70;;;12.10;99.90;;;;;;5072234;28;20059;-80
2022/10/08 09:00:43;;;;;;;9.18;1.23;;;12.00;99.90;;;;;;5060974;28;20052;-79
2022/10/08 09:03:18;;;;;;;8.98;1.58;;;12.10;99.90;;;;;;5068273;28;20082;-79
2022/10/08 09:05:46;;;;;;;12.93;1.88;;;12.10;99.90;;;;;;5073301;28;20055;-80
2022/10/08 09:08:39;;;;;;;9.82;1.60;;;12.10;99.90;;;;;;5052142;28;20048;-80
2022/10/08 09:11:05;;;;;;;6.55;1.08;;;12.20;99.90;;;;;;5055619;28;20079;-79
2022/10/08 09:13:56;;;;;;;10.18;1.23;;;12.30;99.90;;;;;;5022938;28;20570;-80
2022/10/08 09:16:24;;;;;;;6.47;1.40;;;12.50;99.90;;;;;;5055370;28;20044;-79
2022/10/08 09:18:50;;;;;;;9.88;2.03;;;12.60;99.90;;;;;;5056528;28;20196;-79
2022/10/08 09:21:17;;;;;;;10.60;1.30;;;12.60;99.90;;;;;;5052249;28;20090;-80
2022/10/08 09:23:44;;;;;;;14.65;1.67;;;12.70;99.90;;;;;;5053056;28;20045;-80
2022/10/08 09:26:22;;;;;;;8.95;1.65;;;12.90;99.90;;;;;;5044309;28;20051;-80
2022/10/08 09:28:56;;;;;;;8.90;1.65;;;13.10;99.90;;;;;;5057636;28;20053;-77
2022/10/08 09:31:41;;;;;;;14.30;1.58;;;13.20;99.90;;;;;;5052548;28;20044;-77
2022/10/08 09:34:11;;;;;;;7.38;1.30;;;13.40;99.90;;;;;;5048668;28;20074;-77
2022/10/08 09:36:49;;;;;;;7.75;1.15;;;13.60;99.90;;;;;;5045927;28;20060;-80
2022/10/08 09:39:19;;;;;;;10.32;1.80;;;13.70;99.90;;;;;;5043653;28;20059;-77
2022/10/08 09:41:46;;;;;;;7.82;1.70;;;13.80;96.20;;;;;;5041741;28;20446;-77
2022/10/08 09:44:21;;;;;;;4.85;1.00;;;13.80;99.90;;;;;;5054531;28;20135;-78
2022/10/08 09:46:52;;;;;;;9.13;1.30;;;13.90;99.90;;;;;;5040596;28;20073;-78
2022/10/08 09:49:26;;;;;;;7.90;1.67;;;14.00;86.70;;;;;;5068893;28;20564;-77
2022/10/08 09:51:52;;;;;;;10.32;1.42;;;13.80;28.70;;;;;;5039772;28;20106;-77
2022/10/08 09:54:25;;;;;;;10.10;1.58;;;13.60;12.30;;;;;;5051506;28;20045;-78
2022/10/08 09:56:54;;;;;;;5.60;1.20;;;13.40;1.00;;;;;;5044010;28;20051;-78
2022/10/08 09:59:23;;;;;;;7.03;1.17;;;13.30;5.30;;;;;;5071169;28;20058;-79
2022/10/08 10:01:49;;;;;;;11.07;1.73;;;13.50;20.20;;;;;;5072104;28;20047;-78
2022/10/08 10:04:30;;;;;;;6.53;1.38;;;13.70;3.20;;;;;;5035575;28;20044;-78
2022/10/08 10:06:56;;;;;;;9.00;1.38;;;13.90;99.90;;;;;;5060189;28;20052;-78
2022/10/08 10:09:42;;;;;;;6.95;1.17;;;14.00;1.00;;;;;;5048358;28;20045;-78
2022/10/08 10:12:28;;;;;;;8.30;1.33;;;14.00;99.90;;;;;;5063569;28;20048;-81
2022/10/08 10:15:02;;;;;;;6.20;0.85;;;14.00;99.90;;;;;;5037338;28;20049;-78
2022/10/08 10:17:49;;;;;;;5.93;1.23;;;13.90;1.00;;;;;;5049778;28;20045;-77
2022/10/08 10:20:27;;;;;;;14.38;1.63;;;14.00;99.90;;;;;;5054655;28;20052;-77
2022/10/08 10:22:55;;;;;;;8.93;1.20;;;14.10;99.90;;;;;;5035649;28;20049;-77
2022/10/08 10:25:40;;;;;;;6.72;1.35;;;14.20;1.00;;;;;;5045477;28;20071;-78
2022/10/08 10:28:32;;;;;;;4.53;1.05;;;14.40;99.90;;;;;;5062372;28;20044;-78
2022/10/08 10:31:04;;;;;;;10.93;1.50;;;14.40;1.00;;;;;;5034569;28;20056;-77
2022/10/08 10:33:39;;;;;;;9.73;1.95;;;14.40;1.00;;;;;;5062152;28;20040;-78
2022/10/08 10:36:11;;;;;;;6.57;1.60;;;14.40;1.00;;;;;;5038603;28;20046;-77
2022/10/08 10:38:46;;;;;;;8.82;1.98;;;14.40;97.90;;;;;;5051959;28;20509;-78
2022/10/08 10:41:22;;;;;;;5.03;1.27;;;14.40;99.90;;;;;;5051945;28;20052;-80
2022/10/08 10:44:05;;;;;;;6.65;1.17;;;14.50;99.90;;;;;;5043512;28;20517;-78
2022/10/08 10:46:45;;;;;;;6.80;1.05;;;14.50;1.00;;;;;;5052795;28;20047;-78
2022/10/08 10:49:16;;;;;;;6.63;1.27;;;14.50;20.50;;;;;;5046539;28;20074;-81
2022/10/08 10:52:02;;;;;;;5.32;1.25;;;14.70;85.30;;;;;;5070079;28;20048;-78
2022/10/08 10:54:31;;;;;;;11.80;1.70;;;14.80;99.90;;;;;;5060525;28;20049;-78
2022/10/08 10:57:02;;;;;;;7.68;1.40;;;15.00;1.00;;;;;;5065508;28;20680;-78
2022/10/08 10:59:46;;;;;;;3.28;1.27;;;15.10;1.00;;;;;;5066897;28;20051;-78
2022/10/08 11:02:20;;;;;;;3.90;0.70;;;15.40;99.90;;;;;;5066640;28;20481;-81
2022/10/08 11:04:55;;;;;;;5.90;1.02;;;15.60;1.00;;;;;;5054046;28;20044;-78
2022/10/08 11:07:39;;;;;;;7.53;0.88;;;15.80;1.00;;;;;;5067431;28;20086;-77
2022/10/08 11:10:24;;;;;;;8.55;0.98;;;15.90;1.00;;;;;;5062585;28;20079;-77
2022/10/08 11:12:58;;;;;;;5.10;0.87;;;16.10;1.00;;;;;;5055754;28;20167;-78
2022/10/08 11:15:32;;;;;;;4.75;0.80;;;16.40;1.00;;;;;;5071986;28;20054;-77
2022/10/08 11:18:21;;;;;;;2.85;0.70;;;16.70;1.00;;;;;;5072952;28;20064;-77
2022/10/08 11:21:13;;;;;;;6.05;0.90;;;16.50;1.00;;;;;;5034864;28;20060;-77
2022/10/08 11:24:06;;;;;;;5.95;0.93;;;16.40;1.00;;;;;;5069309;28;20043;-77
2022/10/08 11:27:01;;;;;;;5.68;0.93;;;16.50;1.00;;;;;;5048461;28;20059;-77
2022/10/08 11:29:29;;;;;;;7.47;0.90;;;16.70;1.00;;;;;;5061466;28;20648;-77
2022/10/08 11:31:55;;;;;;;6.22;1.10;;;16.60;1.00;;;;;;5066782;28;20048;-77
2022/10/08 11:34:30;;;;;;;7.15;1.27;;;16.60;1.00;;;;;;5045309;28;20051;-77
2022/10/08 11:36:59;;;;;;;9.65;1.48;;;16.70;1.00;;;;;;5059681;28;20044;-78
2022/10/08 11:39:45;;;;;;;7.65;1.23;;;16.90;1.00;;;;;;5048060;28;20075;-77
2022/10/08 11:42:27;;;;;;;8.10;1.20;;;17.20;1.00;;;;;;5074444;28;20055;-77
2022/10/08 11:44:52;;;;;;;3.83;1.00;;;17.40;1.00;;;;;;5050738;28;20086;-77
2022/10/08 11:47:40;;;;;;;7.90;1.50;;;17.50;1.00;;;;;;5055856;28;20071;-81
2022/10/08 11:50:23;;;;;;;9.52;0.93;;;17.60;1.00;;;;;;5042335;28;20127;-78
2022/10/08 11:52:50;;;;;;;5.65;1.02;;;17.80;1.00;;;;;;5054777;28;20658;-77
2022/10/08 11:55:22;;;;;;;7.80;1.27;;;18.00;1.00;;;;;;5024151;28;20044;-77
2022/10/08 11:58:28;;;;;;;5.40;1.08;;;18.20;1.00;;;;;;5057521;28;20040;-77
2022/10/08 12:01:05;;;;;;;7.35;1.50;;;18.30;1.00;;;;;;5065016;28;20036;-77
2022/10/08 12:03:36;;;;;;;5.90;1.42;;;18.00;1.00;;;;;;5062980;28;20059;-77
2022/10/08 12:06:33;;;;;;;9.52;1.95;;;17.80;1.00;;;;;;5041389;28;20056;-78
2022/10/08 12:09:04;;;;;;;6.85;1.00;;;17.90;1.00;;;;;;5034035;28;20558;-77
2022/10/08 12:11:39;;;;;;;6.05;1.35;;;17.80;1.00;;;;;;5071594;28;20055;-77
2022/10/08 12:14:31;;;;;;;9.15;1.20;;;17.90;1.00;;;;;;5056668;28;20481;-77
2022/10/08 12:16:56;;;;;;;7.80;1.05;;;17.90;1.00;;;;;;5043463;28;20040;-78
2022/10/08 12:19:32;;;;;;;9.77;1.50;;;18.00;1.00;;;;;;5069618;28;20516;-80
2022/10/08 12:21:58;;;;;;;9.00;1.33;;;18.20;1.00;;;;;;5062003;28;20161;-78
2022/10/08 12:24:36;;;;;;;6.63;1.52;;;18.10;1.00;;;;;;5054625;28;20398;-81
2022/10/08 12:27:17;;;;;;;6.18;1.15;;;18.10;1.00;;;;;;5067797;28;20070;-77
2022/10/08 12:30:04;;;;;;;9.23;1.20;;;17.90;1.00;;;;;;5073330;28;20044;-77
2022/10/08 12:32:31;;;;;;;8.73;1.30;;;17.80;1.00;;;;;;5055732;28;20047;-77
2022/10/08 12:34:58;;;;;;;7.75;0.93;;;17.70;1.00;;;;;;5056902;28;20118;-77
2022/10/08 12:38:04;;;;;;;7.45;1.00;;;17.80;1.00;;;;;;5072993;28;20063;-81
2022/10/08 12:40:48;;;;;;;4.35;1.00;;;17.90;1.00;;;;;;5050745;28;20047;-77
2022/10/08 12:43:41;;;;;;;7.32;1.42;;;18.20;1.00;;;;;;5073160;28;20053;-78
2022/10/08 12:46:40;;;;;;;10.20;1.30;;;18.20;1.00;;;;;;5069563;28;20055;-77
2022/10/08 12:49:30;;;;;;;12.73;1.77;;;17.70;1.00;;;;;;5062122;28;20386;-78
2022/10/08 12:52:09;;;;;;;5.38;1.02;;;17.60;1.00;;;;;;5048967;28;20052;-77
2022/10/08 12:54:36;;;;;;;7.18;1.40;;;18.60;1.00;;;;;;5054879;28;20497;-77
2022/10/08 12:57:09;;;;;;;4.95;1.10;;;20.20;1.00;;;;;;5067977;28;20051;-78
2022/10/08 12:59:38;;;;;;;6.72;1.27;;;21.60;1.00;;;;;;5064874;28;20133;-77
2022/10/08 13:02:31;;;;;;;8.90;1.10;;;22.20;1.00;;;;;;5049216;28;20048;-77
2022/10/08 13:04:57;;;;;;;5.97;1.33;;;22.90;1.00;;;;;;5045372;28;20048;-77
2022/10/08 13:07:29;;;;;;;6.45;1.02;;;23.30;1.00;;;;;;5046046;28;20043;-78